Time;durP1;ratioP1;P1;durP2;ratioP2;P2;SDS_P1;SDS_P2;PMS_P1;PMS_P2;Temp;Humidity;BMP_temperature;BMP_pressure;BME280_temperature;BME280_humidity;BME280_pressure;Samples;Min_cycle;Max_cycle;Signal;HPM_P1;HPM_P2
2022/09/14 00:01:24;;;;;;;6.78;3.77;;;;;;;15.43;67.38;96478.75;1739387;81;25694;-90
2022/09/14 00:03:58;;;;;;;4.35;3.95;;;;;;;15.42;67.31;96474.39;1733596;82;32417;-89
2022/09/14 00:06:25;;;;;;;5.10;4.28;;;;;;;15.42;67.38;96477.94;1699989;81;25734;-88
2022/09/14 00:08:54;;;;;;;5.58;3.30;;;;;;;15.37;67.44;96464.84;1688031;81;27470;-88
2022/09/14 00:11:24;;;;;;;5.62;4.03;;;;;;;15.32;67.44;96477.06;1706377;81;25747;-90
2022/09/14 00:13:52;;;;;;;5.03;4.08;;;;;;;15.29;67.33;96466.17;1739797;81;25897;-90
2022/09/14 00:16:26;;;;;;;5.87;3.95;;;;;;;15.29;67.38;96464.81;1744498;81;26431;-90
2022/09/14 00:18:56;;;;;;;5.87;3.67;;;;;;;15.30;67.46;96463.73;1746941;81;25774;-89
2022/09/14 00:21:23;;;;;;;5.67;3.60;;;;;;;15.31;67.55;96455.85;1741726;81;27394;-90
2022/09/14 00:23:50;;;;;;;5.72;3.70;;;;;;;15.30;67.54;96464.27;1738720;81;25791;-89
2022/09/14 00:26:20;;;;;;;4.30;3.90;;;;;;;15.27;67.63;96460.17;1719119;81;25648;-90
2022/09/14 00:28:50;;;;;;;4.58;3.60;;;;;;;15.27;67.66;96457.99;1716603;81;26843;-89
2022/09/14 00:31:18;;;;;;;4.35;3.67;;;;;;;15.24;67.84;96457.16;1703787;82;26297;-89
2022/09/14 00:33:47;;;;;;;4.03;3.60;;;;;;;15.21;67.93;96457.16;1704174;82;27384;-87
2022/09/14 00:36:18;;;;;;;5.92;3.77;;;;;;;15.19;67.98;96462.04;1723033;82;25763;-89
2022/09/14 00:38:47;;;;;;;4.83;3.87;;;;;;;15.21;68.04;96464.50;1704016;82;25897;-90
2022/09/14 00:41:18;;;;;;;5.87;4.05;;;;;;;15.21;67.94;96462.60;1697333;82;26862;-91
2022/09/14 00:44:00;;;;;;;9.20;3.75;;;;;;;15.23;68.08;96455.52;1703777;84;26089;-92
2022/09/14 00:46:31;;;;;;;5.42;4.47;;;;;;;15.21;68.14;96453.09;1704051;82;28146;-92
2022/09/14 00:49:04;;;;;;;6.05;4.10;;;;;;;15.20;68.16;96453.34;1731593;82;25253;-93
2022/09/14 00:51:33;;;;;;;6.90;4.58;;;;;;;15.18;68.16;96449.53;1690746;83;25733;-92
2022/09/14 00:54:05;;;;;;;5.03;4.22;;;;;;;15.17;68.28;96453.33;1733112;82;26632;-91
2022/09/14 00:56:32;;;;;;;7.40;5.25;;;;;;;15.13;68.29;96456.28;1726903;82;26289;-92
2022/09/14 00:59:04;;;;;;;8.98;5.35;;;;;;;15.11;68.29;96451.64;1703777;82;27637;-87
2022/09/14 01:01:31;;;;;;;7.20;4.50;;;;;;;15.07;68.46;96451.91;1703842;82;25748;-93
2022/09/14 01:03:57;;;;;;;4.25;3.80;;;;;;;15.03;68.33;96450.79;1717113;82;25772;-88
2022/09/14 01:06:46;;;;;;;5.85;4.00;;;;;;;14.96;68.31;96446.14;1708837;83;26061;-89
2022/09/14 01:09:33;;;;;;;7.22;4.65;;;;;;;14.97;68.22;96451.85;1673012;84;25261;-89
2022/09/14 01:12:50;;;;;;;5.55;4.55;;;;;;;14.96;68.24;96443.42;1698865;84;27415;-89
2022/09/14 01:15:50;;;;;;;12.00;7.25;;;;;;;14.98;68.29;96450.74;1673543;83;25774;-89
2022/09/14 01:18:41;;;;;;;11.75;6.65;;;;;;;14.95;68.51;96447.22;1673572;84;25845;-90
2022/09/14 01:21:15;;;;;;;9.55;6.12;;;;;;;14.96;68.54;96448.86;1700572;84;26170;-90
2022/09/14 01:24:21;;;;;;;8.93;6.05;;;;;;;14.92;68.77;96449.09;1728007;83;25702;-90
2022/09/14 01:27:02;;;;;;;7.97;5.92;;;;;;;14.78;68.87;96446.83;1726915;82;27442;-91
2022/09/14 01:29:46;;;;;;;7.50;5.35;;;;;;;14.73;69.09;96450.84;1675223;82;25863;-90
2022/09/14 01:32:20;;;;;;;7.05;4.65;;;;;;;14.64;69.21;96446.98;1687021;83;25768;-92
2022/09/14 01:35:16;;;;;;;9.80;4.58;;;;;;;14.52;69.22;96443.63;1702241;83;26851;-91
2022/09/14 01:38:00;;;;;;;5.62;4.42;;;;;;;14.50;69.38;96442.25;1668411;83;26222;-89
2022/09/14 01:40:35;;;;;;;7.10;4.50;;;;;;;14.47;69.50;96442.25;1710537;83;28045;-91
2022/09/14 01:43:12;;;;;;;12.18;6.85;;;;;;;14.44;69.63;96441.41;1697724;84;25787;-88
2022/09/14 01:45:44;;;;;;;9.08;6.25;;;;;;;14.39;69.66;96439.95;1708033;83;25745;-89
2022/09/14 01:48:14;;;;;;;5.95;5.22;;;;;;;14.41;69.72;96437.84;1697688;83;26235;-90
2022/09/14 01:50:45;;;;;;;6.47;5.12;;;;;;;14.41;69.80;96435.13;1704750;83;26536;-91
2022/09/14 01:53:21;;;;;;;7.67;6.37;;;;;;;14.33;69.88;96431.51;1697814;84;27368;-91
2022/09/14 01:56:02;;;;;;;7.92;5.87;;;;;;;14.24;69.92;96431.70;1697526;83;25823;-90
2022/09/14 01:58:40;;;;;;;6.50;4.75;;;;;;;14.20;70.03;96430.58;1688122;84;25763;-90
2022/09/14 02:01:11;;;;;;;5.15;4.65;;;;;;;14.14;70.15;96424.80;1725287;83;26080;-92
2022/09/14 02:03:43;;;;;;;8.25;4.80;;;;;;;14.06;70.20;96416.06;1712758;83;26077;-89
2022/09/14 02:06:36;;;;;;;5.45;4.45;;;;;;;14.05;70.35;96417.67;1698473;83;28336;-88
2022/09/14 02:09:05;;;;;;;5.97;4.65;;;;;;;14.02;70.50;96419.00;1698078;84;25715;-88
2022/09/14 02:11:31;;;;;;;5.80;4.55;;;;;;;13.96;70.59;96410.55;1725363;83;25711;-90
2022/09/14 02:13:58;;;;;;;6.37;5.30;;;;;;;13.97;70.60;96401.88;1683478;84;26762;-90
2022/09/14 02:16:25;;;;;;;7.33;4.83;;;;;;;14.00;70.68;96392.69;1669384;84;25806;-88
2022/09/14 02:18:52;;;;;;;9.10;5.08;;;;;;;14.02;70.65;96402.72;1708057;83;27437;-89
2022/09/14 02:21:29;;;;;;;5.83;4.58;;;;;;;14.00;70.68;96395.41;1724343;83;25903;-89
2022/09/14 02:23:59;;;;;;;6.40;5.28;;;;;;;13.95;70.67;96399.41;1696042;83;25741;-88
2022/09/14 02:26:26;;;;;;;6.65;4.80;;;;;;;13.91;70.82;96395.56;1695611;83;26822;-84
2022/09/14 02:28:54;;;;;;;7.12;4.55;;;;;;;13.80;70.71;96395.19;1678292;84;25731;-85
2022/09/14 02:31:51;;;;;;;6.30;4.72;;;;;;;13.75;70.89;96395.69;1713120;83;26988;-88
2022/09/14 02:34:54;;;;;;;5.20;4.70;;;;;;;13.67;70.88;96387.45;1630843;84;25839;-86
2022/09/14 02:37:41;;;;;;;6.37;5.08;;;;;;;13.64;71.12;96384.70;1708868;81;25765;-89
2022/09/14 02:40:15;;;;;;;5.85;4.80;;;;;;;13.63;71.22;96387.70;1715044;81;25892;-88
2022/09/14 02:42:59;;;;;;;7.95;5.05;;;;;;;13.62;71.13;96396.91;1729198;81;25675;-89
2022/09/14 02:45:52;;;;;;;6.67;4.53;;;;;;;13.64;71.18;96396.13;1714244;81;28240;-86
2022/09/14 02:48:45;;;;;;;9.25;6.08;;;;;;;13.66;71.18;96400.73;1737968;82;26415;-89
2022/09/14 02:51:37;;;;;;;8.40;6.25;;;;;;;13.67;71.25;96401.02;1695852;83;25293;-89
2022/09/14 02:54:17;;;;;;;9.20;6.33;;;;;;;13.67;71.26;96401.84;1705094;82;26054;-88
2022/09/14 02:56:44;;;;;;;6.67;5.42;;;;;;;13.67;71.35;96390.17;1711590;81;25726;-87
2022/09/14 02:59:11;;;;;;;6.75;5.03;;;;;;;13.58;71.30;96387.64;1746549;81;27360;-87
2022/09/14 03:01:38;;;;;;;6.75;5.35;;;;;;;13.52;71.33;96384.06;1721018;82;25722;-88
2022/09/14 03:04:05;;;;;;;6.67;5.17;;;;;;;13.54;71.39;96385.14;1716374;81;25730;-91
2022/09/14 03:06:31;;;;;;;7.78;5.03;;;;;;;13.55;71.39;96386.78;1722992;81;26640;-87
2022/09/14 03:08:58;;;;;;;9.43;5.00;;;;;;;13.58;71.50;96383.57;1714979;82;25722;-88
2022/09/14 03:11:26;;;;;;;6.22;5.08;;;;;;;13.55;71.44;96378.65;1701215;82;27406;-87
2022/09/14 03:13:53;;;;;;;8.78;5.55;;;;;;;13.58;71.55;96372.72;1730108;81;25287;-88
2022/09/14 03:16:19;;;;;;;6.03;5.42;;;;;;;13.56;71.55;96370.80;1729098;82;25746;-88
2022/09/14 03:18:46;;;;;;;12.15;5.30;;;;;;;13.55;71.56;96371.88;1716929;81;26285;-87
2022/09/14 03:21:16;;;;;;;7.72;5.03;;;;;;;13.50;71.55;96363.70;1714626;81;25745;-89
2022/09/14 03:23:47;;;;;;;6.47;5.00;;;;;;;13.47;71.64;96363.67;1713385;81;28141;-87
2022/09/14 03:26:17;;;;;;;8.35;5.40;;;;;;;13.45;71.70;96370.41;1732708;82;25722;-87
2022/09/14 03:28:46;;;;;;;11.20;5.42;;;;;;;13.41;71.73;96366.56;1709396;82;25771;-86
2022/09/14 03:31:13;;;;;;;9.05;5.62;;;;;;;13.36;71.81;96363.81;1731091;82;26001;-85
2022/09/14 03:33:40;;;;;;;11.57;6.33;;;;;;;13.33;71.93;96360.53;1693441;83;25745;-84
2022/09/14 03:36:17;;;;;;;6.35;5.58;;;;;;;13.30;72.01;96361.03;1692214;83;27490;-87
2022/09/14 03:38:46;;;;;;;6.03;5.30;;;;;;;13.31;72.05;96357.78;1713863;83;25763;-85
2022/09/14 03:41:14;;;;;;;9.73;7.00;;;;;;;13.37;72.14;96368.16;1699234;83;25797;-87
2022/09/14 03:43:42;;;;;;;8.38;6.10;;;;;;;13.38;72.19;96364.38;1689065;83;25990;-88
2022/09/14 03:46:13;;;;;;;7.75;5.53;;;;;;;13.38;72.19;96365.73;1699494;83;25721;-87
2022/09/14 03:48:40;;;;;;;10.23;6.40;;;;;;;13.38;72.18;96365.20;1704940;83;27331;-86
2022/09/14 03:51:08;;;;;;;10.88;7.33;;;;;;;13.37;72.21;96362.20;1711593;83;25716;-88
2022/09/14 03:53:36;;;;;;;10.78;7.12;;;;;;;13.34;72.23;96358.64;1714092;83;25764;-93
2022/09/14 03:56:09;;;;;;;16.35;9.78;;;;;;;13.34;72.28;96364.06;1710187;83;26057;-87
2022/09/14 03:58:36;;;;;;;20.23;9.35;;;;;;;13.33;72.38;96365.13;1685074;83;25768;-90
2022/09/14 04:01:09;;;;;;;16.77;9.28;;;;;;;13.33;72.32;96363.78;1706639;83;28083;-89
2022/09/14 04:03:36;;;;;;;21.05;9.83;;;;;;;13.35;72.38;96362.98;1713413;83;25867;-89
2022/09/14 04:06:04;;;;;;;15.75;10.00;;;;;;;13.36;72.41;96368.70;1681317;84;25780;-89
2022/09/14 04:08:34;;;;;;;14.78;8.38;;;;;;;13.36;72.53;96369.23;1703386;84;26869;-92
2022/09/14 04:11:11;;;;;;;15.75;7.83;;;;;;;13.28;72.52;96365.87;1703364;83;25802;-89
2022/09/14 04:13:38;;;;;;;9.48;7.67;;;;;;;13.28;72.66;96367.80;1692208;83;28014;-91
2022/09/14 04:16:05;;;;;;;10.03;6.55;;;;;;;13.24;72.66;96371.55;1673908;84;25885;-85
2022/09/14 04:18:32;;;;;;;6.95;5.92;;;;;;;13.25;72.77;96370.47;1703169;83;25731;-90
2022/09/14 04:21:05;;;;;;;8.80;5.85;;;;;;;13.22;72.85;96372.33;1703217;83;26041;-86
2022/09/14 04:23:32;;;;;;;10.35;6.20;;;;;;;13.21;72.93;96354.97;1698255;83;25746;-91
2022/09/14 04:25:59;;;;;;;7.47;6.05;;;;;;;13.24;73.01;96360.70;1677354;85;27422;-92
2022/09/14 04:28:26;;;;;;;11.30;6.58;;;;;;;13.25;73.00;96364.23;1674675;84;25731;-91
2022/09/14 04:30:58;;;;;;;9.98;6.78;;;;;;;13.25;73.06;96365.05;1684606;82;25776;-88
2022/09/14 04:33:32;;;;;;;9.55;6.75;;;;;;;13.26;73.14;96369.94;1726798;82;26035;-89
2022/09/14 04:36:02;;;;;;;15.58;7.90;;;;;;;13.25;73.35;96375.89;1718798;82;25866;-88
2022/09/14 04:38:30;;;;;;;12.82;7.85;;;;;;;13.20;73.33;96371.75;1711408;82;27536;-90
2022/09/14 04:40:57;;;;;;;23.00;11.05;;;;;;;13.24;73.43;96374.25;1683289;83;25953;-89
2022/09/14 04:43:25;;;;;;;15.83;8.65;;;;;;;13.28;73.52;96375.36;1710546;83;25796;-87
2022/09/14 04:45:53;;;;;;;12.63;8.10;;;;;;;13.25;73.70;96370.47;1733837;81;26063;-88
2022/09/14 04:48:19;;;;;;;11.12;6.65;;;;;;;13.21;73.75;96376.11;1706242;82;25761;-87
2022/09/14 04:50:46;;;;;;;11.75;7.15;;;;;;;13.21;73.83;96370.69;1710581;81;27359;-90
2022/09/14 04:53:12;;;;;;;9.63;6.95;;;;;;;13.25;73.92;96366.41;1680636;83;25759;-88
2022/09/14 04:55:39;;;;;;;14.15;6.85;;;;;;;13.29;74.02;96360.75;1724619;82;26457;-89
2022/09/14 04:58:06;;;;;;;14.15;7.28;;;;;;;13.31;74.03;96355.89;1714118;82;26042;-89
2022/09/14 05:00:34;;;;;;;11.80;6.60;;;;;;;13.33;73.97;96358.36;1744203;82;25636;-88
2022/09/14 05:03:03;;;;;;;10.75;6.55;;;;;;;13.36;74.04;96358.39;1730203;82;28449;-90
2022/09/14 05:05:30;;;;;;;9.95;6.62;;;;;;;13.38;74.09;96353.54;1714283;82;25858;-89
2022/09/14 05:07:56;;;;;;;8.20;6.15;;;;;;;13.40;74.08;96352.75;1706941;82;25349;-88
2022/09/14 05:10:23;;;;;;;8.55;6.35;;;;;;;13.44;74.12;96354.68;1714179;82;25983;-88
2022/09/14 05:12:49;;;;;;;9.88;6.47;;;;;;;13.51;74.16;96355.86;1688744;82;25752;-87
2022/09/14 05:15:16;;;;;;;8.40;5.78;;;;;;;13.54;74.32;96355.31;1714434;82;27543;-88
2022/09/14 05:17:42;;;;;;;6.80;5.35;;;;;;;13.57;74.21;96354.81;1707794;82;25343;-89
2022/09/14 05:20:09;;;;;;;7.70;6.20;;;;;;;13.60;74.31;96357.02;1713793;82;25922;-88
2022/09/14 05:22:36;;;;;;;13.62;6.33;;;;;;;13.66;74.31;96357.34;1714242;82;25989;-86
2022/09/14 05:25:02;;;;;;;6.47;5.83;;;;;;;13.70;74.35;96350.34;1683205;81;25305;-87
2022/09/14 05:27:29;;;;;;;10.70;5.80;;;;;;;13.76;74.32;96349.33;1673607;83;27943;-88
2022/09/14 05:29:55;;;;;;;14.15;6.47;;;;;;;13.82;74.38;96350.18;1714005;82;25866;-88
2022/09/14 05:32:22;;;;;;;11.33;6.72;;;;;;;13.89;74.19;96347.52;1710020;81;25719;-87
2022/09/14 05:34:49;;;;;;;11.28;6.42;;;;;;;13.92;74.30;96345.66;1701272;84;26043;-88
2022/09/14 05:37:15;;;;;;;11.12;7.08;;;;;;;13.99;74.25;96351.71;1670173;83;25771;-88
2022/09/14 05:39:41;;;;;;;12.65;6.92;;;;;;;14.06;74.33;96346.88;1695916;83;27375;-90
2022/09/14 05:42:08;;;;;;;17.70;7.65;;;;;;;14.11;74.53;96345.28;1701494;83;25856;-90
2022/09/14 05:44:35;;;;;;;13.05;7.00;;;;;;;14.18;74.57;96347.23;1711122;82;25720;-85
2022/09/14 05:47:01;;;;;;;10.08;6.60;;;;;;;14.23;74.59;96347.28;1696283;83;25984;-86
2022/09/14 05:49:28;;;;;;;8.10;6.53;;;;;;;14.28;74.54;96344.59;1696213;83;25940;-92
2022/09/14 05:51:55;;;;;;;9.63;6.62;;;;;;;14.34;74.43;96336.78;1710957;83;27363;-88
2022/09/14 05:54:22;;;;;;;10.38;6.00;;;;;;;14.40;74.68;96330.32;1697383;84;25495;-85
2022/09/14 05:56:48;;;;;;;11.48;6.05;;;;;;;14.46;74.58;96336.61;1725092;83;25529;-90
2022/09/14 05:59:15;;;;;;;6.87;5.70;;;;;;;14.51;74.48;96327.95;1703752;83;25983;-90
2022/09/14 06:01:41;;;;;;;7.33;5.17;;;;;;;14.58;74.44;96332.63;1706229;83;25872;-89
2022/09/14 06:04:10;;;;;;;7.37;5.03;;;;;;;14.65;74.31;96336.45;1697149;84;27605;-86
2022/09/14 06:06:37;;;;;;;5.67;4.90;;;;;;;14.72;74.29;96337.88;1670697;84;25235;-90
2022/09/14 06:09:04;;;;;;;6.22;4.72;;;;;;;14.81;74.19;96329.21;1670390;84;25742;-88
2022/09/14 06:11:35;;;;;;;11.22;6.75;;;;;;;14.88;74.18;96331.14;1694434;84;26044;-86
2022/09/14 06:14:01;;;;;;;8.85;5.97;;;;;;;14.94;74.02;96329.55;1696896;83;25719;-89
2022/09/14 06:16:30;;;;;;;13.50;8.58;;;;;;;15.04;74.20;96335.56;1724536;83;26886;-86
2022/09/14 06:18:58;;;;;;;12.20;7.83;;;;;;;15.10;74.09;96335.31;1697428;84;25735;-85
2022/09/14 06:21:32;;;;;;;8.35;5.22;;;;;;;15.18;73.98;96335.36;1676094;84;25747;-87
2022/09/14 06:23:59;;;;;;;10.03;5.65;;;;;;;15.27;74.05;96340.55;1708013;83;26651;-86
2022/09/14 06:26:26;;;;;;;5.83;4.70;;;;;;;15.36;74.04;96333.50;1690699;82;25328;-85
2022/09/14 06:28:53;;;;;;;7.60;5.62;;;;;;;15.44;74.25;96335.72;1706685;83;27570;-85
2022/09/14 06:31:21;;;;;;;6.72;5.10;;;;;;;15.53;74.18;96333.83;1688179;82;25677;-86
2022/09/14 06:33:49;;;;;;;6.42;5.17;;;;;;;15.61;74.07;96331.96;1712306;83;25639;-85
2022/09/14 06:36:22;;;;;;;7.20;5.03;;;;;;;15.72;74.04;96330.89;1709684;83;26085;-85
2022/09/14 06:38:49;;;;;;;4.80;4.40;;;;;;;15.80;73.94;96331.74;1703663;82;25699;-85
2022/09/14 06:41:20;;;;;;;9.68;4.53;;;;;;;15.90;73.86;96333.11;1720749;83;28258;-85
2022/09/14 06:43:47;;;;;;;6.72;4.60;;;;;;;16.00;73.65;96337.19;1698937;84;25827;-85
2022/09/14 06:46:20;;;;;;;7.55;5.00;;;;;;;16.11;73.65;96340.73;1727807;83;25818;-85
2022/09/14 06:48:54;;;;;;;7.25;4.58;;;;;;;16.21;73.22;96337.46;1716994;83;26050;-85
2022/09/14 06:51:32;;;;;;;8.23;4.97;;;;;;;16.32;73.18;96336.09;1701382;83;26118;-85
2022/09/14 06:53:59;;;;;;;7.10;4.90;;;;;;;16.43;73.04;96329.00;1718297;83;27448;-85
2022/09/14 06:56:29;;;;;;;12.18;5.20;;;;;;;16.56;72.98;96338.52;1716482;83;25812;-86
2022/09/14 06:58:57;;;;;;;13.15;5.67;;;;;;;16.67;72.81;96337.97;1717255;83;25691;-85
2022/09/14 07:01:25;;;;;;;10.00;5.08;;;;;;;16.77;72.53;96342.88;1701965;83;26044;-85
2022/09/14 07:03:52;;;;;;;8.83;4.80;;;;;;;16.89;72.66;96342.58;1698521;83;25688;-91
2022/09/14 07:06:23;;;;;;;18.67;5.75;;;;;;;16.98;72.68;96343.63;1718953;83;28177;-86
2022/09/14 07:08:51;;;;;;;12.07;5.25;;;;;;;17.07;72.28;96342.51;1702009;83;25726;-87
2022/09/14 07:11:22;;;;;;;17.82;5.10;;;;;;;17.15;71.96;96337.83;1687226;83;25834;-91
2022/09/14 07:13:48;;;;;;;14.55;5.33;;;;;;;17.23;71.92;96340.81;1715308;83;26005;-91
2022/09/14 07:16:15;;;;;;;7.87;4.75;;;;;;;17.31;71.79;96342.14;1699397;83;25767;-88
2022/09/14 07:18:43;;;;;;;9.75;4.58;;;;;;;17.38;71.49;96337.77;1689876;83;27423;-90
2022/09/14 07:21:16;;;;;;;6.03;4.70;;;;;;;17.44;71.23;96330.62;1677569;84;25293;-86
2022/09/14 07:23:45;;;;;;;10.53;4.40;;;;;;;17.49;71.02;96332.52;1691552;83;25538;-92
2022/09/14 07:26:23;;;;;;;4.35;3.95;;;;;;;17.55;70.79;96332.19;1705493;83;25696;-86
2022/09/14 07:28:55;;;;;;;6.83;3.98;;;;;;;17.62;70.91;96337.36;1697654;83;26480;-85
2022/09/14 07:31:28;;;;;;;4.78;4.20;;;;;;;17.68;70.84;96340.89;1700326;81;27531;-85
2022/09/14 07:33:58;;;;;;;5.78;3.58;;;;;;;17.75;70.85;96343.56;1719015;81;25757;-84
2022/09/14 07:36:26;;;;;;;4.78;3.60;;;;;;;17.80;70.79;96343.54;1717880;81;25671;-86
2022/09/14 07:38:53;;;;;;;7.80;4.00;;;;;;;17.87;70.86;96339.15;1735307;81;26822;-87
2022/09/14 07:41:22;;;;;;;7.80;3.95;;;;;;;17.93;70.70;96338.81;1728643;82;25764;-85
2022/09/14 07:43:52;;;;;;;6.85;4.08;;;;;;;17.97;70.31;96334.97;1748526;81;27506;-85
2022/09/14 07:46:20;;;;;;;7.22;3.83;;;;;;;18.02;70.30;96334.92;1732168;81;25756;-84
2022/09/14 07:48:48;;;;;;;9.13;4.97;;;;;;;18.07;70.09;96333.53;1733128;81;25723;-86
2022/09/14 07:51:15;;;;;;;7.10;4.25;;;;;;;18.12;69.92;96336.20;1702346;82;25988;-88
2022/09/14 07:53:42;;;;;;;7.37;4.25;;;;;;;18.15;69.87;96335.64;1749049;81;25643;-88
2022/09/14 07:56:12;;;;;;;11.45;4.28;;;;;;;18.17;69.80;96333.45;1714980;82;27372;-87
2022/09/14 07:58:39;;;;;;;7.03;4.67;;;;;;;18.23;69.54;96331.50;1732825;82;25803;-86
2022/09/14 08:01:11;;;;;;;5.35;4.35;;;;;;;18.27;69.57;96338.00;1712035;82;25754;-86
2022/09/14 08:03:44;;;;;;;6.30;4.20;;;;;;;18.28;69.30;96339.64;1725597;82;26814;-89
2022/09/14 08:06:18;;;;;;;6.80;4.60;;;;;;;18.30;69.25;96336.89;1738681;81;25477;-85
2022/09/14 08:08:47;;;;;;;6.50;4.55;;;;;;;18.32;69.17;96336.06;1711577;82;28688;-85
2022/09/14 08:11:21;;;;;;;12.70;4.55;;;;;;;18.36;68.96;96326.17;1734460;81;25852;-88
2022/09/14 08:13:52;;;;;;;7.40;4.70;;;;;;;18.41;68.97;96329.97;1741369;81;26403;-91
2022/09/14 08:16:20;;;;;;;5.17;4.53;;;;;;;18.46;68.90;96323.10;1741385;81;26006;-86
2022/09/14 08:18:53;;;;;;;5.92;4.33;;;;;;;18.49;69.07;96321.14;1730255;82;25929;-86
2022/09/14 08:21:20;;;;;;;;;;;;;;;18.54;69.01;96322.47;1714607;82;27473;-90
2022/09/14 08:23:46;;;;;;;5.87;4.50;;;;;;;18.59;69.36;96318.36;1711913;82;25896;-87
2022/09/14 08:26:17;;;;;;;5.72;4.10;;;;;;;18.62;69.49;96317.77;1712081;82;25743;-87
2022/09/14 08:28:44;;;;;;;6.08;4.17;;;;;;;18.67;69.50;96312.26;1717842;81;25947;-85
2022/09/14 08:31:15;;;;;;;6.35;4.08;;;;;;;18.75;69.41;96314.90;1721406;82;25659;-86
2022/09/14 08:33:45;;;;;;;6.55;4.05;;;;;;;18.82;69.31;96317.58;1717392;81;27469;-88
2022/09/14 08:36:15;;;;;;;6.37;4.28;;;;;;;18.92;69.21;96316.64;1741251;82;25874;-88
2022/09/14 08:38:42;;;;;;;6.45;3.77;;;;;;;19.04;69.20;96316.50;1735351;82;25730;-87
2022/09/14 08:41:36;;;;;;;5.97;4.25;;;;;;;19.16;69.12;96315.27;1718771;82;25941;-90
2022/09/14 08:44:37;;;;;;;4.42;3.98;;;;;;;19.23;68.35;96317.08;1716938;81;26287;-90
2022/09/14 08:47:24;;;;;;;7.30;4.08;;;;;;;19.32;68.23;96316.72;1721932;82;27566;-90
2022/09/14 08:49:59;;;;;;;5.20;3.83;;;;;;;19.42;68.21;96309.73;1724976;82;25740;-86
2022/09/14 08:52:39;;;;;;;6.65;4.20;;;;;;;19.51;68.07;96306.63;1733207;81;26267;-90
2022/09/14 08:55:35;;;;;;;5.15;3.80;;;;;;;19.59;67.81;96303.77;1728740;82;26847;-86
2022/09/14 08:58:13;;;;;;;5.70;4.55;;;;;;;19.65;67.61;96303.42;1732904;81;25753;-90
2022/09/14 09:00:45;;;;;;;10.78;4.05;;;;;;;19.66;67.63;96305.05;1710917;81;27572;-87
2022/09/14 09:03:44;;;;;;;5.83;4.95;;;;;;;19.64;66.88;96301.80;1732200;81;25871;-86
2022/09/14 09:06:34;;;;;;;5.17;4.35;;;;;;;19.60;66.55;96295.27;1712027;81;25236;-86
2022/09/14 09:09:26;;;;;;;6.20;4.03;;;;;;;19.55;66.55;96293.17;1711576;82;26056;-87
2022/09/14 09:11:55;;;;;;;5.90;4.45;;;;;;;19.53;66.82;96294.02;1721895;81;26315;-90
2022/09/14 09:14:30;;;;;;;6.17;4.15;;;;;;;19.48;66.96;96292.67;1743373;82;28241;-88
2022/09/14 09:17:00;;;;;;;4.75;4.00;;;;;;;19.46;66.77;96290.78;1736358;82;26031;-85
2022/09/14 09:19:50;;;;;;;7.55;3.52;;;;;;;19.45;66.16;96292.70;1716261;82;25706;-86
2022/09/14 09:22:21;;;;;;;3.70;3.27;;;;;;;19.48;65.85;96289.39;1707190;81;25975;-84
2022/09/14 09:24:53;;;;;;;3.70;3.35;;;;;;;19.51;65.89;96296.23;1742963;82;25797;-84
2022/09/14 09:27:19;;;;;;;5.95;4.20;;;;;;;19.54;65.55;96299.76;1728739;82;27339;-86
2022/09/14 09:29:46;;;;;;;5.67;4.28;;;;;;;19.57;65.42;96299.95;1743974;82;25686;-86
2022/09/14 09:32:24;;;;;;;4.12;3.52;;;;;;;19.61;65.39;96298.27;1699766;81;25802;-88
2022/09/14 09:34:51;;;;;;;3.60;3.30;;;;;;;19.65;65.63;96297.13;1700701;83;26803;-85
2022/09/14 09:37:23;;;;;;;6.83;3.95;;;;;;;19.67;65.54;96298.47;1683870;83;26544;-86
2022/09/14 09:39:50;;;;;;;4.10;3.60;;;;;;;19.70;65.18;96295.67;1703993;82;27392;-89
2022/09/14 09:42:27;;;;;;;5.05;3.10;;;;;;;19.69;65.06;96295.41;1704071;82;25988;-85
2022/09/14 09:45:00;;;;;;;3.62;3.17;;;;;;;19.69;64.80;96296.78;1722430;82;25699;-87
2022/09/14 09:47:39;;;;;;;7.75;3.37;;;;;;;19.69;64.40;96290.75;1733387;82;26121;-85
2022/09/14 09:50:16;;;;;;;5.87;3.55;;;;;;;19.69;64.35;96286.64;1682811;83;25738;-88
2022/09/14 09:52:53;;;;;;;3.98;3.65;;;;;;;19.67;64.21;96291.63;1723404;83;27489;-88
2022/09/14 09:55:23;;;;;;;3.20;2.92;;;;;;;19.64;63.92;96288.11;1727834;82;25899;-85
2022/09/14 09:57:50;;;;;;;6.35;3.62;;;;;;;19.62;63.84;96288.95;1701119;83;25715;-83
2022/09/14 10:00:32;;;;;;;4.22;3.83;;;;;;;19.64;63.86;96295.50;1661594;85;25979;-90
2022/09/14 10:03:01;;;;;;;4.97;3.70;;;;;;;19.62;63.74;96300.45;1697682;84;25817;-86
2022/09/14 10:05:31;;;;;;;6.45;3.12;;;;;;;19.55;63.53;96296.73;1728225;82;27493;-86
2022/09/14 10:08:00;;;;;;;5.37;3.45;;;;;;;19.53;63.78;96300.86;1703023;83;25718;-85
2022/09/14 10:10:43;;;;;;;5.85;3.90;;;;;;;19.53;63.94;96303.05;1694318;84;25272;-88
2022/09/14 10:13:33;;;;;;;8.40;3.50;;;;;;;19.54;63.89;96311.52;1702547;83;26218;-84
2022/09/14 10:16:17;;;;;;;5.12;3.62;;;;;;;19.49;63.92;96308.84;1728233;83;25497;-85
2022/09/14 10:18:50;;;;;;;7.70;3.95;;;;;;;19.49;63.95;96316.23;1690798;83;28235;-84
2022/09/14 10:21:21;;;;;;;6.92;3.33;;;;;;;19.49;64.03;96311.58;1706816;83;26265;-86
2022/09/14 10:24:16;;;;;;;4.80;4.12;;;;;;;19.49;64.18;96312.13;1709206;83;25670;-87
2022/09/14 10:26:42;;;;;;;4.47;3.67;;;;;;;19.47;64.25;96306.91;1704743;83;26065;-86
2022/09/14 10:29:34;;;;;;;6.60;3.98;;;;;;;19.49;64.35;96308.02;1699648;83;25786;-86
2022/09/14 10:32:05;;;;;;;7.15;4.00;;;;;;;19.49;64.48;96306.10;1724247;82;27596;-85
2022/09/14 10:34:32;;;;;;;4.62;4.15;;;;;;;19.51;64.91;96308.00;1747529;81;25789;-90
2022/09/14 10:37:16;;;;;;;4.72;3.98;;;;;;;19.49;65.30;96305.29;1750184;81;25682;-88
2022/09/14 10:39:57;;;;;;;7.17;3.70;;;;;;;19.50;65.50;96305.55;1712346;83;26007;-85
2022/09/14 10:42:38;;;;;;;6.47;3.98;;;;;;;19.48;65.26;96309.91;1708736;81;26513;-84
2022/09/14 10:45:36;;;;;;;7.05;4.17;;;;;;;19.45;65.30;96310.49;1713351;82;28123;-84
2022/09/14 10:48:26;;;;;;;5.05;3.95;;;;;;;19.46;65.42;96312.68;1733128;82;25723;-89
2022/09/14 10:51:19;;;;;;;3.77;3.42;;;;;;;19.41;65.54;96310.84;1710253;81;25690;-88
2022/09/14 10:54:13;;;;;;;4.25;3.85;;;;;;;19.32;65.77;96315.34;1739483;81;26103;-83
2022/09/14 10:57:06;;;;;;;4.47;3.95;;;;;;;19.27;65.68;96318.14;1733285;82;25810;-86
2022/09/14 11:00:12;;;;;;;6.72;4.22;;;;;;;19.21;65.55;96320.66;1737516;82;27401;-87
2022/09/14 11:02:59;;;;;;;4.92;4.37;;;;;;;19.17;65.79;96319.63;1732963;81;25807;-94
2022/09/14 11:05:40;;;;;;;5.42;4.15;;;;;;;19.12;66.13;96320.50;1697110;82;25727;-90
2022/09/14 11:08:17;;;;;;;4.90;4.40;;;;;;;19.11;66.41;96320.78;1721380;81;26232;-89
2022/09/14 11:11:16;;;;;;;5.10;4.15;;;;;;;19.05;67.06;96322.78;1737614;82;25746;-94
2022/09/14 11:14:01;;;;;;;7.05;4.30;;;;;;;19.02;67.20;96320.07;1736234;82;28193;-85
2022/09/14 11:16:48;;;;;;;5.08;4.00;;;;;;;18.99;67.51;96319.28;1722246;82;25272;-86
2022/09/14 11:19:28;;;;;;;6.08;4.42;;;;;;;18.94;67.50;96320.72;1728526;81;25916;-84
2022/09/14 11:22:20;;;;;;;5.33;4.12;;;;;;;18.87;67.98;96314.77;1739039;82;26001;-85
2022/09/14 11:25:07;;;;;;;4.87;4.03;;;;;;;18.84;68.32;96313.97;1701038;82;25954;-84
2022/09/14 11:27:39;;;;;;;6.95;4.40;;;;;;;18.81;68.52;96306.38;1653271;86;28527;-85
2022/09/14 11:30:17;;;;;;;5.85;4.35;;;;;;;18.77;68.92;96298.48;1682122;82;25314;-85
2022/09/14 11:33:00;;;;;;;5.25;3.58;;;;;;;18.81;69.46;96291.89;1713533;82;25875;-88
2022/09/14 11:35:47;;;;;;;5.47;4.20;;;;;;;18.86;69.53;96294.00;1738048;81;26090;-84
2022/09/14 11:38:20;;;;;;;4.22;3.83;;;;;;;18.91;69.74;96288.48;1722896;82;25350;-84
2022/09/14 11:40:52;;;;;;;4.28;3.87;;;;;;;18.94;69.92;96287.09;1714716;82;27980;-83
2022/09/14 11:43:42;;;;;;;4.47;4.05;;;;;;;18.97;70.10;96281.83;1715189;82;25796;-85
2022/09/14 11:46:14;;;;;;;4.95;4.47;;;;;;;18.99;70.02;96275.52;1692956;82;25712;-84
2022/09/14 11:48:59;;;;;;;5.90;4.10;;;;;;;18.93;70.05;96277.26;1730631;82;26295;-85
2022/09/14 11:51:31;;;;;;;4.00;3.40;;;;;;;18.94;70.29;96275.61;1712053;82;25819;-84
2022/09/14 11:53:58;;;;;;;5.67;3.83;;;;;;;18.96;70.24;96276.66;1711920;82;28302;-84
2022/09/14 11:56:31;;;;;;;4.15;3.62;;;;;;;18.96;70.31;96269.81;1732360;82;25864;-85
2022/09/14 11:59:03;;;;;;;5.28;4.75;;;;;;;18.96;70.28;96267.89;1711970;82;25889;-87
2022/09/14 12:01:36;;;;;;;7.62;5.90;;;;;;;18.93;70.31;96264.40;1740204;82;26053;-86